Flight Track Log - Related Links

Times and Time Zones

All times are in EDT time to prevent confusion due to time zone crossing. See the ASQ5482 flight status page for this flight to view local times or setup timezone preferences in your user account.

Time Position Orientation Groundspeed Altitude Reporting Facility
EDT Latitude Longitude Course Direction KTS MPH feet Rate Location/Type
Sun 05:12:53 PM 38.2511 -81.6619 204° Southwest 236 272 5,300  Level Indianapolis Center
Sun 05:13:55 PM 38.1789 -81.7036 204° Southwest 277 319 7,500 2,129 Climbing Indianapolis Center
Sun 05:14:57 PM 38.1025 -81.7483 205° Southwest 299 344 9,700 1,951 Climbing Indianapolis Center
Sun 05:15:58 PM 38.0058 -81.8047 205° Southwest 317 365 11,500 1,463 Climbing Indianapolis Center
Sun 05:16:00 PM 37.9428 -81.8687 207° Southwest  Level Estimated
Sun 05:17:00 PM 37.8560 -81.9234 206° Southwest  Level Estimated
Sun 05:17:00 PM 37.9147 -81.8567 204° Southwest 356 410 12,700  Level Indianapolis Center
Sun 05:18:02 PM 37.8281 -81.9069 205° Southwest 366 421 14,000 1,355 Climbing Indianapolis Center
Sun 05:19:04 PM 37.7181 -81.9719 205° Southwest 372 428 15,500 1,355 Climbing Indianapolis Center
Sun 05:20:06 PM 37.6208 -82.0269 204° Southwest 380 437 16,800 1,220 Climbing Indianapolis Center
Sun 05:21:07 PM 37.5253 -82.0814 204° Southwest 376 433 18,000 1,122 Climbing Indianapolis Center
Sun 05:22:09 PM 37.4300 -82.1369 205° Southwest 376 433 19,100 1,016 Climbing Indianapolis Center
Sun 05:23:11 PM 37.3317 -82.1939 205° Southwest 385 443 20,100 871 Climbing Indianapolis Center
Sun 05:24:13 PM 37.2314 -82.2500 204° Southwest 391 450 20,900 823 Climbing Indianapolis Center
Sun 05:25:15 PM 37.1119 -82.3169 204° Southwest 399 459 21,800 829 Climbing Indianapolis Center
Sun 05:26:16 PM 37.0089 -82.3756 204° Southwest 403 464 22,600 780 Climbing Indianapolis Center
Sun 05:27:18 PM 36.9056 -82.4331 204° Southwest 402 463 23,400 774 Climbing Indianapolis Center
Sun 05:28:20 PM 36.8014 -82.4914 204° Southwest 404 465 24,200 823 Climbing Indianapolis Center
Sun 05:29:22 PM 36.6972 -82.5500 204° Southwest 406 467 25,100 826 Climbing Indianapolis Center
Sun 05:30:09 PM 36.6086 -82.5983 204° Southwest 408 470 25,700 841 Climbing Atlanta Center
Sun 05:31:09 PM 36.5031 -82.6569 204° Southwest 408 470 26,600 700 Climbing Atlanta Center
Sun 05:32:09 PM 36.4014 -82.7156 205° Southwest 413 475 27,100 500 Climbing Atlanta Center
Sun 05:33:09 PM 36.2958 -82.7714 203° Southwest 413 475 27,600 450 Climbing Atlanta Center
Sun 05:34:09 PM 36.1922 -82.8322 205° Southwest 413 475 28,000 200 Climbing Atlanta Center
Sun 05:35:09 PM 36.0944 -82.8850 204° Southwest 418 481 28,000  Level Atlanta Center
Sun 05:36:09 PM 35.9844 -82.9431 203° Southwest 424 488 28,000  Level Atlanta Center
Sun 05:37:09 PM 35.8725 -83.0086 205° Southwest 438 504 28,000  Level Atlanta Center
Sun 05:38:09 PM 35.7561 -83.0611 200° South 448 516 28,000  Level Atlanta Center
Sun 05:39:09 PM 35.6311 -83.0883 190° South 443 510 28,000  Level Atlanta Center
Sun 05:40:09 PM 35.5061 -83.1178 191° South 459 528 28,000  Level Atlanta Center
Sun 05:41:09 PM 35.3833 -83.1447 190° South 459 528 28,000  Level Atlanta Center
Sun 05:42:09 PM 35.2603 -83.1739 191° South 459 528 28,000  Level Atlanta Center
Sun 05:43:09 PM 35.1333 -83.2006 190° South 447 514 28,000 -100 Level Atlanta Center
Sun 05:44:09 PM 35.0228 -83.2272 191° South 426 490 27,800 -600 Descending Atlanta Center
Sun 05:45:09 PM 34.9103 -83.2536 191° South 414 476 26,800 -1,000 Descending Atlanta Center
Sun 05:46:09 PM 34.8042 -83.2747 189° South 402 463 25,800 -1,000 Descending Atlanta Center
Sun 05:47:09 PM 34.6978 -83.3036 193° South 397 457 24,800 -900 Descending Atlanta Center
Sun 05:48:09 PM 34.6189 -83.3675 214° Southwest 369 425 24,000 -850 Descending Atlanta Center
Sun 05:49:09 PM 34.5336 -83.4411 215° Southwest 382 440 23,100 -1,500 Descending Atlanta Center
Sun 05:50:09 PM 34.4486 -83.5175 217° Southwest 387 445 21,000 -2,100 Descending Atlanta Center
Sun 05:51:09 PM 34.3675 -83.5933 218° Southwest 381 438 18,900 -2,150 Descending Atlanta Center
Sun 05:52:09 PM 34.2781 -83.6717 216° Southwest 373 429 16,700 -2,150 Descending Atlanta Center
Sun 05:53:09 PM 34.1989 -83.7450 217° Southwest 368 423 14,600 -2,050 Descending Atlanta Center
Sun 05:54:09 PM 34.1197 -83.8131 215° Southwest 359 413 12,600 -1,500 Descending Atlanta Center
Sun 05:55:09 PM 34.0531 -83.8808 220° Southwest 347 399 11,600 -1,300 Descending Atlanta Center
Sun 05:56:09 PM 33.9883 -83.9511 222° Southwest 323 372 10,000 -1,300 Descending Atlanta Center
Sun 05:57:09 PM 33.9069 -83.9661 189° South 294 338 9,000 -500 Descending Atlanta Center
Sun 05:58:09 PM 33.8214 -83.9639 179° South 294 338 9,000 -150 Level Atlanta Center
Sun 05:59:09 PM 33.7483 -83.9639 180° South 294 338 8,700 -450 Descending Atlanta Center
Sun 06:00:09 PM 33.6772 -83.9864 195° South 277 319 8,100 -950 Descending Atlanta Center
Sun 06:01:09 PM 33.6314 -84.0364 222° Southwest 234 269 6,800 -1,114 Descending Atlanta Center
Sun 06:02:29 PM 33.6333 -84.1333 271° West 198 228 5,500 -986 Descending Atlanta TRACON
Sun 06:03:29 PM 33.6333 -84.2000 270° West 188 216 4,500 -1,000 Descending Atlanta TRACON
Sun 06:04:29 PM 33.6333 -84.2500 270° West 192 221 3,500 -950 Descending Atlanta TRACON
Sun 06:05:29 PM 33.6333 -84.3167 270° West 189 217 2,600 -850 Descending Atlanta TRACON
Sun 06:06:29 PM 33.6333 -84.3667 270° West 145 167 1,800 -800 Descending Atlanta TRACON
Sun 06:08:00 PM 33.6333 -84.4167 270° West  Level FlightAware Approximate
Sun 06:15:00 PM 33.6367 -84.4279 270° West  Level Estimated
Sun 06:16:00 PM 33.6367 -84.4279 270° West  Level Estimated

Login

Don't have an account? Register now (free) for customized features, flight alerts, and more!